Time;durP1;ratioP1;P1;durP2;ratioP2;P2;SDS_P1;SDS_P2;PMS_P1;PMS_P2;Temp;Humidity;BMP_temperature;BMP_pressure;BME280_temperature;BME280_humidity;BME280_pressure;Samples;Min_cycle;Max_cycle;Signal;HPM_P1;HPM_P2
2022/11/20 00:01:26;;;;;;;4.35;1.98;;;0.90;20.30;;;;;;5063736;28;20431;-72
2022/11/20 00:03:55;;;;;;;2.00;1.77;;;0.90;1.00;;;;;;5059813;28;20452;-72
2022/11/20 00:06:23;;;;;;;2.33;2.13;;;0.90;1.00;;;;;;5066555;28;20428;-72
2022/11/20 00:08:51;;;;;;;1.85;1.75;;;0.90;1.00;;;;;;5074873;28;20501;-72
2022/11/20 00:11:23;;;;;;;3.65;1.88;;;0.90;1.00;;;;;;5066524;28;20439;-72
2022/11/20 00:13:53;;;;;;;3.63;2.53;;;0.90;1.00;;;;;;5064923;28;20992;-73
2022/11/20 00:16:22;;;;;;;2.80;1.77;;;0.90;1.00;;;;;;5055254;28;20515;-72
2022/11/20 00:18:49;;;;;;;4.63;1.60;;;0.90;1.00;;;;;;5078282;28;20428;-73
2022/11/20 00:21:21;;;;;;;2.50;1.80;;;0.80;1.00;;;;;;5066456;28;20793;-72
2022/11/20 00:23:48;;;;;;;4.97;2.15;;;0.70;1.00;;;;;;5064821;28;20796;-72
2022/11/20 00:26:18;;;;;;;2.13;1.92;;;0.60;1.00;;;;;;5064049;28;20425;-73
2022/11/20 00:28:50;;;;;;;1.80;1.70;;;0.60;1.00;;;;;;5060378;28;20440;-73
2022/11/20 00:31:18;;;;;;;1.90;1.60;;;0.50;1.00;;;;;;5062954;28;20662;-73
2022/11/20 00:33:45;;;;;;;2.20;2.00;;;0.50;1.00;;;;;;5063316;28;20431;-73
2022/11/20 00:36:21;;;;;;;2.55;2.10;;;0.50;30.70;;;;;;5060837;28;20456;-73
2022/11/20 00:38:52;;;;;;;2.42;1.60;;;0.60;92.90;;;;;;5063349;28;20974;-73
2022/11/20 00:41:19;;;;;;;2.22;2.13;;;0.70;99.90;;;;;;5061538;28;21099;-73
2022/11/20 00:43:46;;;;;;;2.90;2.03;;;0.70;99.90;;;;;;5075144;28;20429;-73
2022/11/20 00:46:17;;;;;;;1.80;1.55;;;0.70;99.90;;;;;;5070264;28;20783;-73
2022/11/20 00:48:44;;;;;;;1.50;1.40;;;0.70;99.90;;;;;;5063035;28;20952;-73
2022/11/20 00:51:16;;;;;;;1.20;1.10;;;0.70;99.90;;;;;;5061377;28;21004;-73
2022/11/20 00:53:44;;;;;;;1.70;1.60;;;0.70;99.90;;;;;;5058440;28;20429;-73
2022/11/20 00:56:13;;;;;;;2.35;1.83;;;0.70;99.90;;;;;;5058927;28;20438;-72
2022/11/20 00:58:42;;;;;;;1.70;1.60;;;0.70;99.90;;;;;;5054541;28;20427;-73
2022/11/20 01:01:14;;;;;;;1.80;1.40;;;0.70;99.90;;;;;;5061700;28;20427;-73
2022/11/20 01:03:46;;;;;;;1.95;1.50;;;0.70;99.90;;;;;;5058693;28;20482;-73
2022/11/20 01:06:18;;;;;;;2.35;2.17;;;0.70;99.90;;;;;;5062581;28;20434;-73
2022/11/20 01:08:45;;;;;;;3.90;2.20;;;0.80;99.90;;;;;;5062999;28;20437;-73
2022/11/20 01:11:18;;;;;;;1.75;1.65;;;0.80;99.90;;;;;;5058697;28;20423;-72
2022/11/20 01:13:47;;;;;;;1.83;1.67;;;0.80;99.90;;;;;;5064272;28;20434;-72
2022/11/20 01:16:27;;;;;;;2.35;1.92;;;0.80;99.90;;;;;;5066692;28;20903;-72
2022/11/20 01:18:57;;;;;;;4.35;1.83;;;0.80;99.90;;;;;;5065988;28;20905;-73
2022/11/20 01:21:28;;;;;;;3.33;1.98;;;0.80;99.90;;;;;;5062055;28;20444;-73
2022/11/20 01:23:54;;;;;;;4.38;1.50;;;0.70;99.90;;;;;;5057311;28;20429;-73
2022/11/20 01:26:23;;;;;;;1.50;1.40;;;0.70;99.90;;;;;;5061760;28;20427;-73
2022/11/20 01:28:51;;;;;;;3.63;2.42;;;0.70;99.90;;;;;;5056167;28;20442;-73
2022/11/20 01:31:27;;;;;;;1.95;1.77;;;0.70;1.00;;;;;;5057935;28;20442;-73
2022/11/20 01:33:57;;;;;;;2.85;2.25;;;0.70;1.00;;;;;;5059583;28;20436;-72
2022/11/20 01:36:26;;;;;;;2.22;1.33;;;0.80;1.00;;;;;;5058864;28;20504;-73
2022/11/20 01:38:54;;;;;;;2.13;1.58;;;0.70;1.00;;;;;;5066172;28;20424;-73
2022/11/20 01:44:12;;;;;;;2.42;2.20;;;0.80;1.00;;;;;;5061232;28;20453;-73
2022/11/20 01:46:45;;;;;;;3.50;1.60;;;0.80;1.00;;;;;;5068964;28;20986;-73
2022/11/20 01:49:21;;;;;;;4.35;1.85;;;0.80;1.00;;;;;;5062471;28;20437;-73
2022/11/20 01:51:56;;;;;;;3.35;2.33;;;0.80;99.90;;;;;;5062697;28;20431;-73
2022/11/20 01:54:39;;;;;;;3.55;2.30;;;0.80;1.00;;;;;;5060316;28;20427;-73
2022/11/20 01:57:10;;;;;;;2.70;2.27;;;0.80;1.00;;;;;;5057552;28;20450;-73
2022/11/20 01:59:44;;;;;;;1.50;1.40;;;0.80;1.00;;;;;;5067899;28;20431;-73
2022/11/20 02:02:11;;;;;;;2.03;1.92;;;0.80;1.00;;;;;;5061594;28;20484;-73
2022/11/20 02:04:38;;;;;;;3.88;2.30;;;0.90;1.00;;;;;;5075641;28;20418;-73
2022/11/20 02:07:05;;;;;;;2.00;1.83;;;0.80;1.00;;;;;;5065821;28;20439;-73
2022/11/20 02:09:32;;;;;;;2.00;1.90;;;0.80;1.00;;;;;;5056864;28;20445;-73
2022/11/20 02:12:00;;;;;;;3.10;2.30;;;0.80;1.00;;;;;;5057318;28;20489;-73
2022/11/20 02:14:27;;;;;;;1.50;1.20;;;0.80;1.00;;;;;;5055705;28;20432;-73
2022/11/20 02:16:55;;;;;;;2.83;1.95;;;0.80;1.00;;;;;;5077762;28;20428;-73
2022/11/20 02:19:28;;;;;;;2.47;2.27;;;0.80;1.00;;;;;;5061789;28;20441;-73
2022/11/20 02:22:30;;;;;;;2.90;1.52;;;0.90;1.00;;;;;;5055266;28;20460;-73
2022/11/20 02:25:01;;;;;;;1.98;1.88;;;0.80;1.00;;;;;;5055662;28;20472;-73
2022/11/20 02:27:29;;;;;;;2.83;2.58;;;0.80;1.00;;;;;;5058562;28;20432;-73
2022/11/20 02:30:00;;;;;;;3.15;2.10;;;0.80;1.00;;;;;;5071413;28;20556;-73
2022/11/20 02:32:30;;;;;;;5.82;1.80;;;0.80;1.00;;;;;;5055464;28;20458;-72
2022/11/20 02:34:58;;;;;;;1.33;1.17;;;0.90;1.00;;;;;;5056713;28;20435;-73
2022/11/20 02:37:32;;;;;;;6.07;2.95;;;0.90;1.00;;;;;;5065855;28;20439;-73
2022/11/20 02:39:59;;;;;;;3.05;2.63;;;0.90;1.00;;;;;;5064582;28;20482;-73
2022/11/20 02:42:26;;;;;;;5.70;2.33;;;0.90;1.00;;;;;;5063436;28;20480;-73
2022/11/20 02:44:52;;;;;;;4.25;2.42;;;0.90;1.00;;;;;;5058674;28;20435;-73
2022/11/20 02:47:19;;;;;;;2.72;2.53;;;0.90;1.00;;;;;;5081001;28;21000;-73
2022/11/20 02:49:46;;;;;;;3.15;2.00;;;0.90;1.00;;;;;;5064883;28;20435;-73
2022/11/20 02:52:13;;;;;;;2.70;1.67;;;0.90;1.00;;;;;;5061166;28;20427;-73
2022/11/20 02:54:40;;;;;;;3.88;2.85;;;0.90;1.00;;;;;;5061249;28;20427;-73
2022/11/20 02:57:07;;;;;;;2.55;2.33;;;0.80;1.00;;;;;;5065241;28;20439;-73
2022/11/20 02:59:33;;;;;;;3.80;1.70;;;0.80;1.00;;;;;;5058709;28;20425;-73
2022/11/20 03:02:00;;;;;;;5.55;2.13;;;0.90;1.00;;;;;;5065404;28;20444;-73
2022/11/20 03:04:27;;;;;;;3.03;1.70;;;0.90;1.00;;;;;;5068468;28;20502;-74
2022/11/20 03:06:54;;;;;;;2.78;1.65;;;0.90;1.00;;;;;;5068133;28;20437;-73
2022/11/20 03:09:21;;;;;;;3.60;1.70;;;0.90;1.00;;;;;;5065809;28;20493;-73
2022/11/20 03:11:48;;;;;;;4.28;2.00;;;0.90;1.00;;;;;;5063291;28;20447;-73
2022/11/20 03:14:15;;;;;;;5.13;1.83;;;0.90;1.00;;;;;;5069775;28;20431;-73
2022/11/20 03:16:42;;;;;;;2.00;1.87;;;1.00;1.00;;;;;;5068039;28;20486;-73
2022/11/20 03:19:09;;;;;;;4.07;2.60;;;1.00;1.00;;;;;;5057056;28;20433;-73
2022/11/20 03:21:36;;;;;;;10.00;2.03;;;1.00;1.00;;;;;;5063690;28;20522;-73
2022/11/20 03:24:03;;;;;;;3.75;2.00;;;0.90;1.00;;;;;;5063985;28;20434;-73
2022/11/20 03:26:30;;;;;;;2.55;1.65;;;1.00;1.00;;;;;;5063010;28;20864;-73
2022/11/20 03:29:03;;;;;;;4.65;2.03;;;1.00;1.00;;;;;;5068141;28;20439;-73
2022/11/20 03:31:33;;;;;;;2.97;2.47;;;0.90;1.00;;;;;;5068207;28;20435;-73
2022/11/20 03:34:01;;;;;;;1.70;1.60;;;1.00;1.00;;;;;;5066038;28;20425;-73
2022/11/20 03:36:28;;;;;;;1.52;1.15;;;1.00;1.00;;;;;;5061698;28;20932;-73
2022/11/20 03:38:56;;;;;;;2.17;1.98;;;1.10;1.00;;;;;;5066363;28;20476;-72
2022/11/20 03:41:26;;;;;;;4.75;2.50;;;1.00;1.00;;;;;;5063731;28;20419;-72
2022/11/20 03:43:53;;;;;;;3.17;1.27;;;1.00;1.00;;;;;;5075278;28;20490;-72
2022/11/20 03:46:20;;;;;;;3.53;2.47;;;1.00;1.00;;;;;;5065791;28;20458;-72
2022/11/20 03:48:47;;;;;;;2.35;2.15;;;1.00;1.00;;;;;;5068921;28;20530;-72
2022/11/20 03:51:20;;;;;;;1.95;1.83;;;1.00;1.00;;;;;;5062283;28;20430;-72
2022/11/20 03:53:49;;;;;;;4.30;1.73;;;0.90;1.00;;;;;;5062985;28;20435;-72
2022/11/20 03:56:18;;;;;;;1.55;1.45;;;0.90;1.00;;;;;;5071653;28;20910;-73
2022/11/20 03:58:45;;;;;;;3.75;1.60;;;1.00;1.00;;;;;;5068025;28;20506;-72
2022/11/20 04:01:16;;;;;;;7.93;2.22;;;1.00;1.00;;;;;;5068576;28;20430;-72
2022/11/20 04:03:44;;;;;;;3.73;2.40;;;1.00;1.00;;;;;;5065971;28;20435;-72
2022/11/20 04:06:13;;;;;;;4.65;2.50;;;1.00;1.00;;;;;;5064348;28;20501;-72
2022/11/20 04:08:41;;;;;;;4.32;2.25;;;1.10;1.00;;;;;;5064366;28;20490;-73
2022/11/20 04:11:15;;;;;;;2.85;2.47;;;1.10;1.00;;;;;;5057572;28;20438;-72
2022/11/20 04:13:45;;;;;;;2.65;2.08;;;1.00;1.00;;;;;;5055001;28;20962;-72
2022/11/20 04:16:12;;;;;;;2.78;2.42;;;1.10;1.00;;;;;;5062761;28;20423;-73
2022/11/20 04:18:39;;;;;;;1.80;1.70;;;1.00;1.00;;;;;;5063847;28;20430;-73
2022/11/20 04:21:07;;;;;;;3.90;2.50;;;1.00;1.00;;;;;;5068165;28;20433;-72
2022/11/20 04:23:34;;;;;;;3.10;2.30;;;1.00;1.00;;;;;;5065321;28;20433;-74
2022/11/20 04:26:07;;;;;;;5.28;2.30;;;0.90;1.00;;;;;;5067008;28;20489;-73
2022/11/20 04:28:34;;;;;;;5.63;2.30;;;1.00;1.00;;;;;;5074935;28;20464;-73
2022/11/20 04:31:09;;;;;;;4.75;2.13;;;0.90;1.00;;;;;;5068781;28;20423;-73
2022/11/20 04:33:37;;;;;;;2.60;1.75;;;0.90;1.00;;;;;;5065110;28;20849;-73
2022/11/20 04:36:07;;;;;;;2.35;1.85;;;1.00;1.00;;;;;;5061305;28;20439;-73
2022/11/20 04:38:34;;;;;;;5.50;2.20;;;0.90;1.00;;;;;;5063233;28;20425;-73
2022/11/20 04:41:04;;;;;;;3.20;1.70;;;1.00;1.00;;;;;;5059360;28;20436;-73
2022/11/20 04:43:32;;;;;;;3.25;2.17;;;1.00;1.00;;;;;;5058490;28;20514;-73
2022/11/20 04:46:00;;;;;;;7.22;2.97;;;1.00;1.00;;;;;;5067594;28;20436;-73
2022/11/20 04:48:28;;;;;;;2.90;1.63;;;1.10;1.00;;;;;;5060727;28;20423;-73
2022/11/20 04:50:56;;;;;;;1.85;1.65;;;1.00;1.00;;;;;;5067996;28;20431;-73
2022/11/20 04:53:23;;;;;;;4.25;2.35;;;1.00;1.00;;;;;;5062107;28;20446;-73
2022/11/20 04:55:50;;;;;;;7.13;2.42;;;1.10;1.00;;;;;;5063435;28;20431;-72
2022/11/20 04:58:17;;;;;;;1.55;1.45;;;1.00;1.00;;;;;;5060639;28;20431;-73
2022/11/20 05:00:44;;;;;;;2.50;2.30;;;1.00;1.00;;;;;;5063912;28;20431;-73
2022/11/20 05:03:10;;;;;;;2.85;1.73;;;1.10;1.00;;;;;;5067110;28;20435;-73
2022/11/20 05:05:37;;;;;;;2.63;1.93;;;1.10;1.00;;;;;;5060725;28;20518;-73
2022/11/20 05:08:04;;;;;;;2.45;2.33;;;1.10;1.00;;;;;;5067632;28;20433;-73
2022/11/20 05:10:31;;;;;;;3.63;2.33;;;1.10;1.00;;;;;;5066378;28;20422;-73
2022/11/20 05:12:57;;;;;;;4.53;1.95;;;1.10;1.00;;;;;;5064820;28;20417;-73
2022/11/20 05:15:24;;;;;;;2.35;2.15;;;1.10;1.00;;;;;;5063335;28;20423;-73
2022/11/20 05:17:52;;;;;;;2.58;1.73;;;1.10;1.00;;;;;;5067090;28;20489;-73
2022/11/20 05:20:19;;;;;;;2.72;2.10;;;1.20;1.00;;;;;;5068479;28;21078;-73
2022/11/20 05:22:46;;;;;;;3.40;3.00;;;1.20;1.00;;;;;;5068165;28;20605;-73
2022/11/20 05:25:13;;;;;;;2.47;2.15;;;1.10;1.00;;;;;;5075494;28;20432;-73
2022/11/20 05:27:40;;;;;;;3.13;2.08;;;1.10;1.00;;;;;;5060375;28;21026;-73
2022/11/20 05:30:07;;;;;;;2.55;2.35;;;1.10;1.00;;;;;;5071118;28;20457;-73
2022/11/20 05:32:34;;;;;;;2.40;2.13;;;1.20;1.00;;;;;;5067657;28;20492;-73
2022/11/20 05:35:01;;;;;;;5.10;2.63;;;1.20;1.00;;;;;;5072165;28;20431;-73
2022/11/20 05:37:28;;;;;;;4.40;2.28;;;1.20;1.00;;;;;;5070735;28;20992;-73
2022/11/20 05:39:54;;;;;;;3.45;2.65;;;1.20;1.00;;;;;;5069354;28;20443;-73
2022/11/20 05:42:30;;;;;;;3.97;2.28;;;1.20;1.00;;;;;;5062631;28;20431;-73
2022/11/20 05:45:02;;;;;;;3.42;2.70;;;1.20;1.00;;;;;;5073236;28;20935;-73
2022/11/20 05:47:32;;;;;;;3.88;2.17;;;1.20;1.60;;;;;;5069666;28;21171;-73
2022/11/20 05:49:59;;;;;;;2.17;1.45;;;1.20;1.00;;;;;;5067366;28;20463;-73
2022/11/20 05:52:29;;;;;;;5.18;3.65;;;1.30;1.00;;;;;;5064110;28;20438;-73
2022/11/20 05:54:56;;;;;;;6.28;2.13;;;1.20;1.00;;;;;;5071612;28;20427;-73
2022/11/20 05:57:23;;;;;;;5.73;2.73;;;1.20;1.00;;;;;;5068174;28;20427;-73
2022/11/20 05:59:49;;;;;;;5.55;3.15;;;1.30;1.00;;;;;;5066900;28;20430;-73
2022/11/20 06:02:16;;;;;;;4.70;2.80;;;1.30;1.00;;;;;;5062764;28;20799;-73
2022/11/20 06:04:43;;;;;;;2.67;2.47;;;1.30;1.00;;;;;;5059845;28;20427;-73
2022/11/20 06:07:10;;;;;;;4.63;3.83;;;1.30;1.00;;;;;;5076286;28;20492;-73
2022/11/20 06:09:37;;;;;;;1.80;1.70;;;1.40;1.00;;;;;;5059116;28;21132;-73
2022/11/20 06:12:04;;;;;;;4.15;2.92;;;1.40;1.00;;;;;;5066770;28;21706;-73
2022/11/20 06:14:31;;;;;;;1.95;1.85;;;1.40;1.00;;;;;;5064572;28;20429;-72
2022/11/20 06:16:57;;;;;;;3.33;2.53;;;1.50;1.00;;;;;;5064077;28;20447;-73
2022/11/20 06:19:24;;;;;;;3.10;1.85;;;1.50;1.00;;;;;;5067776;28;20435;-73
2022/11/20 06:21:51;;;;;;;3.22;2.13;;;1.50;1.00;;;;;;5071144;28;20510;-73
2022/11/20 06:24:18;;;;;;;4.47;2.35;;;1.40;1.00;;;;;;5065993;28;20444;-73
2022/11/20 06:26:45;;;;;;;2.33;2.17;;;1.40;1.00;;;;;;5069832;28;20459;-73
2022/11/20 06:29:12;;;;;;;2.40;1.95;;;1.50;1.00;;;;;;5068803;28;20428;-73
2022/11/20 06:31:38;;;;;;;6.85;2.88;;;1.40;1.00;;;;;;5068328;28;20485;-73
2022/11/20 06:34:06;;;;;;;3.00;1.73;;;1.40;1.00;;;;;;5061864;28;20425;-73
2022/11/20 06:36:33;;;;;;;2.38;1.92;;;1.40;1.00;;;;;;5060928;28;20431;-73
2022/11/20 06:39:01;;;;;;;3.97;2.08;;;1.40;1.00;;;;;;5055186;28;20488;-73
2022/11/20 06:41:28;;;;;;;3.88;2.85;;;1.40;1.00;;;;;;5062948;28;20431;-73
2022/11/20 06:43:55;;;;;;;7.18;2.42;;;1.40;1.00;;;;;;5060635;28;20923;-73
2022/11/20 06:46:22;;;;;;;1.98;1.50;;;1.40;1.00;;;;;;5068983;28;20780;-73
2022/11/20 06:48:49;;;;;;;3.70;2.20;;;1.40;1.00;;;;;;5066762;28;20913;-73
2022/11/20 06:51:16;;;;;;;5.30;2.80;;;1.40;1.00;;;;;;5064102;28;20518;-73
2022/11/20 06:53:43;;;;;;;2.63;2.33;;;1.40;1.00;;;;;;5059770;28;20431;-73
2022/11/20 06:56:10;;;;;;;2.40;2.07;;;1.40;1.00;;;;;;5067074;28;20427;-73
2022/11/20 06:58:36;;;;;;;3.67;2.17;;;1.50;1.00;;;;;;5061524;28;20528;-73
2022/11/20 07:01:10;;;;;;;6.93;3.30;;;1.50;1.00;;;;;;5060004;28;21040;-70
2022/11/20 07:03:38;;;;;;;2.30;2.10;;;1.50;1.00;;;;;;5062588;28;20427;-71
2022/11/20 07:06:05;;;;;;;4.20;2.10;;;1.40;6.80;;;;;;5060905;28;20439;-71
2022/11/20 07:08:32;;;;;;;3.42;2.72;;;1.40;8.20;;;;;;5053684;28;20520;-71
2022/11/20 07:11:01;;;;;;;4.45;2.20;;;1.40;6.90;;;;;;5062346;28;20958;-70
2022/11/20 07:13:29;;;;;;;3.35;2.35;;;1.40;12.40;;;;;;5053911;28;20429;-71
2022/11/20 07:16:00;;;;;;;6.03;2.83;;;1.50;19.70;;;;;;5066374;28;20454;-70
2022/11/20 07:18:27;;;;;;;4.18;2.90;;;1.50;25.10;;;;;;5064648;28;20423;-71
2022/11/20 07:20:54;;;;;;;4.45;2.60;;;1.50;28.90;;;;;;5061341;28;20431;-70
2022/11/20 07:23:21;;;;;;;12.68;4.35;;;1.50;30.80;;;;;;5057373;28;20437;-70
2022/11/20 07:25:48;;;;;;;5.03;3.20;;;1.50;31.90;;;;;;5066293;28;20435;-71
2022/11/20 07:28:14;;;;;;;4.80;2.33;;;1.50;28.00;;;;;;5059629;28;20474;-70
2022/11/20 07:30:41;;;;;;;3.75;2.70;;;1.50;28.80;;;;;;5060691;28;20427;-70
2022/11/20 07:33:08;;;;;;;3.17;1.98;;;1.60;16.50;;;;;;5065406;28;20439;-71
2022/11/20 07:35:35;;;;;;;4.90;2.80;;;1.60;11.20;;;;;;5073996;28;20471;-71
2022/11/20 07:38:02;;;;;;;4.15;2.60;;;1.60;4.20;;;;;;5063737;28;20447;-71
2022/11/20 07:40:29;;;;;;;2.60;2.40;;;1.60;7.70;;;;;;5058959;28;20425;-70
2022/11/20 07:42:56;;;;;;;2.35;1.88;;;1.60;11.90;;;;;;5063361;28;20471;-71
2022/11/20 07:45:24;;;;;;;7.38;2.92;;;1.70;14.80;;;;;;5060124;28;20424;-72
2022/11/20 07:47:51;;;;;;;7.63;2.30;;;1.70;4.50;;;;;;5063514;28;20438;-71
2022/11/20 07:50:19;;;;;;;2.60;2.17;;;1.70;6.10;;;;;;5059904;28;20438;-71
2022/11/20 07:52:46;;;;;;;7.10;2.97;;;1.70;10.50;;;;;;5061261;28;20432;-71
2022/11/20 07:55:13;;;;;;;5.55;1.92;;;1.70;21.10;;;;;;5073081;28;20826;-71
2022/11/20 07:57:40;;;;;;;3.40;3.10;;;1.70;37.40;;;;;;5073636;28;20424;-71
2022/11/20 08:00:10;;;;;;;2.63;2.42;;;1.80;68.40;;;;;;5068601;28;20432;-71
2022/11/20 08:02:39;;;;;;;2.97;1.95;;;1.90;99.90;;;;;;5061478;28;20433;-73
2022/11/20 08:05:07;;;;;;;4.15;2.85;;;1.90;99.90;;;;;;5074943;28;20437;-72
2022/11/20 08:07:40;;;;;;;4.88;2.17;;;2.00;99.90;;;;;;5068286;28;20461;-70
2022/11/20 08:10:09;;;;;;;1.77;1.67;;;2.00;99.90;;;;;;5060530;28;20521;-72
2022/11/20 08:15:21;;;;;;;3.95;1.50;;;2.10;99.90;;;;;;5062676;28;20428;-72
2022/11/20 08:17:48;;;;;;;2.55;1.92;;;2.10;99.90;;;;;;5063654;28;20506;-72
2022/11/20 08:20:35;;;;;;;2.70;1.38;;;2.00;99.90;;;;;;5070202;28;20923;-72
2022/11/20 08:23:05;;;;;;;4.00;2.10;;;1.90;99.90;;;;;;5070229;28;20427;-72
2022/11/20 08:25:34;;;;;;;6.10;2.40;;;1.90;99.90;;;;;;5061700;28;20479;-72
2022/11/20 08:28:03;;;;;;;2.70;2.50;;;2.00;99.90;;;;;;5061545;28;20433;-72
2022/11/20 08:30:45;;;;;;;1.90;1.80;;;2.30;99.90;;;;;;5069872;28;20859;-72
2022/11/20 08:33:12;;;;;;;3.45;2.05;;;2.50;99.90;;;;;;5056590;28;20427;-72
2022/11/20 08:35:40;;;;;;;1.92;1.65;;;2.70;99.90;;;;;;5068731;28;21313;-70
2022/11/20 08:38:08;;;;;;;6.35;2.08;;;2.60;99.90;;;;;;5073554;28;20521;-71
2022/11/20 08:40:35;;;;;;;2.05;1.95;;;2.60;99.90;;;;;;5053664;28;20431;-71
2022/11/20 08:43:02;;;;;;;2.57;2.37;;;2.40;99.90;;;;;;5065729;28;20440;-70
2022/11/20 08:45:29;;;;;;;4.50;2.30;;;2.30;99.90;;;;;;5071775;28;20927;-70
2022/11/20 08:48:02;;;;;;;3.40;2.22;;;2.20;99.90;;;;;;5069154;28;20542;-70
2022/11/20 08:50:31;;;;;;;2.88;2.10;;;2.30;99.90;;;;;;5056821;28;20440;-70
2022/11/20 08:53:05;;;;;;;2.38;2.17;;;2.30;99.90;;;;;;5069546;28;20448;-70
2022/11/20 08:55:35;;;;;;;3.20;1.75;;;2.50;99.90;;;;;;5057190;28;20951;-70
2022/11/20 08:58:06;;;;;;;6.03;2.33;;;2.70;99.90;;;;;;5076364;28;20479;-70
2022/11/20 09:00:33;;;;;;;2.77;1.90;;;2.90;99.90;;;;;;5061893;28;20505;-70
2022/11/20 09:03:01;;;;;;;2.08;1.58;;;3.10;99.90;;;;;;5066497;28;20435;-71
2022/11/20 09:05:28;;;;;;;4.22;2.78;;;3.10;99.90;;;;;;5077905;28;20430;-71
2022/11/20 09:07:58;;;;;;;2.15;1.95;;;3.00;99.90;;;;;;5057749;28;20428;-71
2022/11/20 09:10:26;;;;;;;4.38;3.00;;;3.00;99.90;;;;;;5065445;28;20422;-71
2022/11/20 09:12:55;;;;;;;5.03;3.42;;;2.90;99.90;;;;;;5066536;28;20812;-72
2022/11/20 09:15:22;;;;;;;2.27;1.93;;;2.90;99.90;;;;;;5057994;28;20434;-71
2022/11/20 09:18:02;;;;;;;5.47;3.00;;;3.00;99.90;;;;;;5068805;28;20913;-71
2022/11/20 09:20:30;;;;;;;8.27;2.90;;;3.00;99.90;;;;;;5057596;28;20433;-71
2022/11/20 09:22:57;;;;;;;2.22;1.75;;;3.10;99.90;;;;;;5064111;28;20944;-70
2022/11/20 09:25:25;;;;;;;5.78;2.72;;;3.20;99.90;;;;;;5050857;28;20429;-70
2022/11/20 09:27:58;;;;;;;2.47;1.95;;;3.20;99.90;;;;;;5060570;28;20518;-71
2022/11/20 09:30:26;;;;;;;3.10;2.73;;;3.20;99.90;;;;;;5069443;28;20976;-70
2022/11/20 09:32:53;;;;;;;4.90;3.13;;;3.30;99.90;;;;;;5067863;28;20433;-71
2022/11/20 09:35:20;;;;;;;4.60;2.10;;;3.50;1.00;;;;;;5070386;28;21004;-71
2022/11/20 09:37:47;;;;;;;6.10;3.43;;;3.60;1.00;;;;;;5056777;28;20946;-71
2022/11/20 09:40:28;;;;;;;4.07;3.05;;;3.70;99.90;;;;;;5062871;28;20435;-71
2022/11/20 09:43:02;;;;;;;4.65;3.47;;;3.70;99.90;;;;;;5058546;28;20440;-71
2022/11/20 09:46:02;;;;;;;4.83;3.10;;;3.70;99.90;;;;;;5057480;28;20941;-71
2022/11/20 09:48:48;;;;;;;2.15;1.95;;;3.70;99.90;;;;;;5068821;28;20467;-71
2022/11/20 09:51:44;;;;;;;3.35;3.03;;;3.60;99.90;;;;;;5069784;28;20790;-71
2022/11/20 09:54:19;;;;;;;3.20;2.50;;;3.60;99.90;;;;;;5062174;28;20440;-71
2022/11/20 09:57:09;;;;;;;3.53;3.17;;;3.50;99.90;;;;;;5059592;28;20423;-71
2022/11/20 10:00:00;;;;;;;3.70;2.60;;;3.50;99.90;;;;;;5065203;28;20447;-71
2022/11/20 10:02:36;;;;;;;5.63;2.90;;;3.70;99.90;;;;;;5068350;28;20510;-71
2022/11/20 10:05:25;;;;;;;6.70;2.90;;;3.90;99.90;;;;;;5056148;28;20468;-71
2022/11/20 10:07:55;;;;;;;2.28;2.08;;;3.80;99.90;;;;;;5062589;28;20459;-71
2022/11/20 10:11:05;;;;;;;2.75;2.55;;;3.90;99.90;;;;;;5065942;28;20514;-71
2022/11/20 10:13:38;;;;;;;4.97;2.92;;;3.80;99.90;;;;;;5044405;28;20439;-71
2022/11/20 10:16:08;;;;;;;3.80;2.88;;;3.90;99.90;;;;;;5069027;28;20427;-71
2022/11/20 10:18:37;;;;;;;3.20;2.50;;;4.00;99.90;;;;;;5056233;28;20437;-71
2022/11/20 10:21:23;;;;;;;3.47;3.17;;;4.10;99.90;;;;;;5057836;28;20477;-71
2022/11/20 10:24:06;;;;;;;5.53;3.55;;;4.20;99.90;;;;;;5069166;28;20443;-71
2022/11/20 10:26:38;;;;;;;4.82;2.67;;;4.10;99.90;;;;;;5070192;28;20514;-71
2022/11/20 10:29:21;;;;;;;4.90;3.05;;;3.90;99.90;;;;;;5053621;28;20899;-71
2022/11/20 10:31:55;;;;;;;3.00;2.57;;;3.90;99.90;;;;;;5047764;28;20526;-71
2022/11/20 10:34:44;;;;;;;4.55;2.75;;;3.90;99.90;;;;;;5059296;28;20439;-71
2022/11/20 10:37:27;;;;;;;4.13;2.73;;;4.00;99.90;;;;;;5064291;28;20427;-71
2022/11/20 10:40:01;;;;;;;3.30;2.67;;;4.00;99.90;;;;;;5058934;28;20450;-70
2022/11/20 10:42:43;;;;;;;5.97;3.28;;;4.00;99.90;;;;;;5066205;28;20490;-69
2022/11/20 10:45:25;;;;;;;5.97;3.38;;;3.90;99.90;;;;;;5048993;28;20468;-69
2022/11/20 10:48:07;;;;;;;3.42;2.45;;;3.80;99.90;;;;;;5049408;28;20942;-70
2022/11/20 10:50:44;;;;;;;4.97;2.60;;;3.70;99.90;;;;;;5058662;28;20437;-72
2022/11/20 10:53:20;;;;;;;4.63;2.25;;;3.70;99.90;;;;;;5067896;28;20431;-72
2022/11/20 10:55:55;;;;;;;2.72;2.53;;;3.70;99.90;;;;;;5067740;28;20419;-72
2022/11/20 10:58:50;;;;;;;5.35;2.67;;;3.60;99.90;;;;;;5068803;28;20427;-72
2022/11/20 11:01:21;;;;;;;5.65;2.88;;;3.60;99.90;;;;;;5066988;28;20431;-72
2022/11/20 11:03:51;;;;;;;3.05;2.83;;;3.60;99.90;;;;;;5048799;28;20520;-72
2022/11/20 11:06:23;;;;;;;4.82;2.85;;;3.60;99.90;;;;;;5063184;28;20442;-72
2022/11/20 11:08:53;;;;;;;3.67;2.85;;;3.70;99.90;;;;;;5064785;28;20442;-72
2022/11/20 11:11:29;;;;;;;3.30;2.75;;;3.70;99.90;;;;;;5070032;28;20509;-72
2022/11/20 11:14:12;;;;;;;5.00;3.03;;;3.70;99.90;;;;;;5068636;28;20983;-72
2022/11/20 11:16:56;;;;;;;2.60;2.40;;;3.80;99.90;;;;;;5069317;28;20428;-72
2022/11/20 11:19:24;;;;;;;5.75;2.85;;;3.90;99.90;;;;;;5069417;28;20423;-72
2022/11/20 11:21:56;;;;;;;2.83;2.17;;;4.20;99.90;;;;;;5064213;28;20516;-72
2022/11/20 11:24:28;;;;;;;5.45;2.50;;;4.40;99.90;;;;;;5052647;28;20520;-72
2022/11/20 11:27:17;;;;;;;5.57;2.00;;;4.50;99.90;;;;;;5064233;28;20424;-72
2022/11/20 11:29:45;;;;;;;4.35;2.63;;;4.50;99.90;;;;;;5072978;28;20434;-72
2022/11/20 11:32:21;;;;;;;2.87;2.57;;;4.70;99.90;;;;;;5073587;28;20542;-72
2022/11/20 11:35:19;;;;;;;3.85;2.05;;;4.80;99.90;;;;;;5071451;28;20434;-72
2022/11/20 11:37:47;;;;;;;3.95;2.45;;;5.10;99.90;;;;;;5065355;28;20427;-72
2022/11/20 11:40:16;;;;;;;2.50;1.92;;;5.00;99.90;;;;;;5072362;28;20698;-72
2022/11/20 11:42:57;;;;;;;6.47;2.17;;;4.90;99.90;;;;;;5071741;28;20457;-72
2022/11/20 11:45:25;;;;;;;4.95;3.15;;;5.10;99.90;;;;;;5066125;28;20648;-72
2022/11/20 11:47:55;;;;;;;2.67;2.35;;;5.10;99.90;;;;;;5072977;28;20573;-72
2022/11/20 11:50:24;;;;;;;1.02;1.02;;;5.00;99.90;;;;;;5070766;28;21106;-71
2022/11/20 11:53:01;;;;;;;2.43;1.90;;;5.00;99.90;;;;;;5067737;28;20765;-70
2022/11/20 11:55:33;;;;;;;2.70;2.17;;;5.10;99.90;;;;;;5058850;28;21138;-70
2022/11/20 11:58:09;;;;;;;3.15;2.78;;;5.30;99.90;;;;;;5066614;28;20848;-71
2022/11/20 12:00:40;;;;;;;3.03;2.38;;;5.40;99.90;;;;;;5062528;28;20427;-70
2022/11/20 12:03:37;;;;;;;3.83;2.20;;;5.40;99.90;;;;;;5071816;28;20530;-70
2022/11/20 12:06:16;;;;;;;3.58;2.25;;;5.30;99.90;;;;;;5044525;28;20471;-69
2022/11/20 12:08:55;;;;;;;3.40;2.10;;;5.40;99.90;;;;;;5048188;28;20551;-69
2022/11/20 12:11:43;;;;;;;3.00;2.70;;;5.60;99.90;;;;;;5032371;28;20437;-69
2022/11/20 12:14:23;;;;;;;4.22;2.50;;;5.60;99.90;;;;;;5029035;28;20435;-69
2022/11/20 12:16:53;;;;;;;3.90;2.50;;;5.70;99.90;;;;;;5037666;28;21157;-69
2022/11/20 12:19:20;;;;;;;3.20;1.50;;;5.70;99.90;;;;;;5049241;28;20882;-69
2022/11/20 12:22:01;;;;;;;2.08;1.88;;;5.80;99.90;;;;;;5049391;28;20432;-69
2022/11/20 12:24:49;;;;;;;2.17;1.65;;;5.70;99.90;;;;;;5032587;28;20434;-69
2022/11/20 12:27:30;;;;;;;3.13;2.03;;;5.70;99.90;;;;;;5047688;28;20448;-69
2022/11/20 12:30:02;;;;;;;3.88;2.38;;;5.90;99.90;;;;;;5051810;28;20577;-69
2022/11/20 12:32:47;;;;;;;2.75;2.33;;;6.10;99.90;;;;;;5055087;28;20513;-69
2022/11/20 12:35:25;;;;;;;3.92;2.60;;;6.20;99.90;;;;;;5046667;28;20472;-69
2022/11/20 12:38:08;;;;;;;3.97;2.60;;;6.10;99.90;;;;;;5049285;28;20792;-68
2022/11/20 12:40:53;;;;;;;3.53;2.47;;;5.80;99.90;;;;;;5030762;28;20417;-69
2022/11/20 12:46:31;;;;;;;2.10;1.73;;;5.40;99.90;;;;;;5075269;28;20462;-69
2022/11/20 12:49:07;;;;;;;2.50;1.90;;;5.20;99.90;;;;;;5071323;28;20427;-69
2022/11/20 12:51:57;;;;;;;2.47;2.28;;;5.10;99.90;;;;;;5067769;28;20424;-69
2022/11/20 12:54:44;;;;;;;2.20;1.30;;;5.20;99.90;;;;;;5064235;28;20427;-69
2022/11/20 12:57:18;;;;;;;4.15;1.60;;;5.30;99.90;;;;;;5068337;28;20487;-69
2022/11/20 13:00:07;;;;;;;2.28;1.73;;;5.40;99.90;;;;;;5071041;28;20423;-69
2022/11/20 13:03:08;;;;;;;2.28;2.08;;;5.40;99.90;;;;;;5069288;28;20428;-69
2022/11/20 13:06:23;;;;;;;5.57;2.20;;;5.50;99.90;;;;;;5070127;28;21029;-69
2022/11/20 13:08:55;;;;;;;2.17;1.98;;;5.30;99.90;;;;;;5018786;28;20437;-69
2022/11/20 13:11:31;;;;;;;2.67;1.90;;;5.10;99.90;;;;;;5008690;28;20429;-69
2022/11/20 13:13:58;;;;;;;2.85;1.60;;;4.90;99.90;;;;;;5020209;28;20517;-69
2022/11/20 13:16:52;;;;;;;1.42;1.33;;;4.70;99.90;;;;;;5004589;28;20939;-69
2022/11/20 13:19:19;;;;;;;1.55;1.45;;;4.60;99.90;;;;;;5003020;28;20586;-68
2022/11/20 13:21:49;;;;;;;9.63;2.50;;;4.60;99.90;;;;;;5006634;28;20467;-69
2022/11/20 13:24:19;;;;;;;1.92;1.83;;;4.60;99.90;;;;;;5008083;28;20494;-69
2022/11/20 13:26:47;;;;;;;2.80;1.98;;;4.70;1.00;;;;;;5006174;28;20470;-69
2022/11/20 13:29:18;;;;;;;1.95;1.77;;;4.70;44.60;;;;;;4992806;28;20438;-69
2022/11/20 13:31:47;;;;;;;2.20;1.50;;;4.70;99.90;;;;;;4991569;28;20446;-69
2022/11/20 13:34:25;;;;;;;2.10;2.00;;;4.70;90.20;;;;;;5008048;28;20436;-69